sensor_id;sensor_type;location;lat;lon;timestamp;P1;durP1;ratioP1;P2;durP2;ratioP2
55031;SDS011;40928;51.076;7.950;2023-11-21T00:02:21;7.07;;;4.15;;
55031;SDS011;40928;51.076;7.950;2023-11-21T00:04:48;9.25;;;4.40;;
55031;SDS011;40928;51.076;7.950;2023-11-21T00:07:14;7.43;;;4.25;;
55031;SDS011;40928;51.076;7.950;2023-11-21T00:09:40;8.07;;;3.90;;
55031;SDS011;40928;51.076;7.950;2023-11-21T00:12:06;6.72;;;4.00;;
55031;SDS011;40928;51.076;7.950;2023-11-21T00:14:37;6.75;;;3.90;;
55031;SDS011;40928;51.076;7.950;2023-11-21T00:17:03;5.93;;;3.72;;
55031;SDS011;40928;51.076;7.950;2023-11-21T00:19:29;6.75;;;3.70;;
55031;SDS011;40928;51.076;7.950;2023-11-21T00:21:56;5.20;;;3.67;;
55031;SDS011;40928;51.076;7.950;2023-11-21T00:24:23;7.78;;;3.60;;
55031;SDS011;40928;51.076;7.950;2023-11-21T00:26:50;7.32;;;4.13;;
55031;SDS011;40928;51.076;7.950;2023-11-21T00:29:17;9.13;;;4.82;;
55031;SDS011;40928;51.076;7.950;2023-11-21T00:31:43;9.98;;;4.30;;
55031;SDS011;40928;51.076;7.950;2023-11-21T00:34:11;5.43;;;3.60;;
55031;SDS011;40928;51.076;7.950;2023-11-21T00:36:37;6.63;;;4.03;;
55031;SDS011;40928;51.076;7.950;2023-11-21T00:39:04;6.10;;;4.18;;
55031;SDS011;40928;51.076;7.950;2023-11-21T00:41:31;6.20;;;3.95;;
55031;SDS011;40928;51.076;7.950;2023-11-21T00:43:57;11.52;;;4.50;;
55031;SDS011;40928;51.076;7.950;2023-11-21T00:46:24;6.10;;;3.92;;
55031;SDS011;40928;51.076;7.950;2023-11-21T00:48:52;5.57;;;3.33;;
55031;SDS011;40928;51.076;7.950;2023-11-21T00:51:19;9.60;;;4.57;;
55031;SDS011;40928;51.076;7.950;2023-11-21T00:53:45;12.73;;;3.70;;
55031;SDS011;40928;51.076;7.950;2023-11-21T00:56:11;7.63;;;4.40;;
55031;SDS011;40928;51.076;7.950;2023-11-21T00:58:37;7.57;;;4.28;;
55031;SDS011;40928;51.076;7.950;2023-11-21T01:01:02;12.98;;;4.30;;
55031;SDS011;40928;51.076;7.950;2023-11-21T01:03:28;12.63;;;3.92;;
55031;SDS011;40928;51.076;7.950;2023-11-21T01:05:54;9.18;;;3.90;;
55031;SDS011;40928;51.076;7.950;2023-11-21T01:08:20;5.00;;;2.80;;
55031;SDS011;40928;51.076;7.950;2023-11-21T01:10:46;5.95;;;3.50;;
55031;SDS011;40928;51.076;7.950;2023-11-21T01:13:12;7.68;;;3.83;;
55031;SDS011;40928;51.076;7.950;2023-11-21T01:15:40;5.20;;;3.65;;
55031;SDS011;40928;51.076;7.950;2023-11-21T01:18:06;7.20;;;3.65;;
55031;SDS011;40928;51.076;7.950;2023-11-21T01:20:34;9.38;;;4.65;;
55031;SDS011;40928;51.076;7.950;2023-11-21T01:23:00;7.85;;;4.00;;
55031;SDS011;40928;51.076;7.950;2023-11-21T01:25:26;6.80;;;3.20;;
55031;SDS011;40928;51.076;7.950;2023-11-21T01:27:52;11.70;;;4.30;;
55031;SDS011;40928;51.076;7.950;2023-11-21T01:30:17;7.10;;;3.88;;
55031;SDS011;40928;51.076;7.950;2023-11-21T01:32:43;7.25;;;3.88;;
55031;SDS011;40928;51.076;7.950;2023-11-21T01:35:09;7.32;;;3.42;;
55031;SDS011;40928;51.076;7.950;2023-11-21T01:37:35;6.82;;;3.60;;
55031;SDS011;40928;51.076;7.950;2023-11-21T01:40:02;10.73;;;3.70;;
55031;SDS011;40928;51.076;7.950;2023-11-21T01:42:30;7.97;;;3.85;;
55031;SDS011;40928;51.076;7.950;2023-11-21T01:44:56;8.75;;;4.03;;
55031;SDS011;40928;51.076;7.950;2023-11-21T01:47:21;5.80;;;3.17;;
55031;SDS011;40928;51.076;7.950;2023-11-21T01:49:47;7.78;;;3.78;;
55031;SDS011;40928;51.076;7.950;2023-11-21T01:52:13;9.68;;;3.67;;
55031;SDS011;40928;51.076;7.950;2023-11-21T01:54:40;9.43;;;4.20;;
55031;SDS011;40928;51.076;7.950;2023-11-21T01:57:07;6.10;;;2.88;;
55031;SDS011;40928;51.076;7.950;2023-11-21T01:59:37;5.38;;;2.92;;
55031;SDS011;40928;51.076;7.950;2023-11-21T02:02:06;9.20;;;3.65;;
55031;SDS011;40928;51.076;7.950;2023-11-21T02:04:33;6.55;;;3.55;;
55031;SDS011;40928;51.076;7.950;2023-11-21T02:06:59;5.70;;;2.40;;
55031;SDS011;40928;51.076;7.950;2023-11-21T02:09:26;7.97;;;4.05;;
55031;SDS011;40928;51.076;7.950;2023-11-21T02:11:55;5.68;;;3.30;;
55031;SDS011;40928;51.076;7.950;2023-11-21T02:14:22;3.90;;;2.72;;
55031;SDS011;40928;51.076;7.950;2023-11-21T02:16:50;8.88;;;3.58;;
55031;SDS011;40928;51.076;7.950;2023-11-21T02:19:20;6.72;;;3.65;;
55031;SDS011;40928;51.076;7.950;2023-11-21T02:21:55;5.50;;;3.15;;
55031;SDS011;40928;51.076;7.950;2023-11-21T02:24:28;5.80;;;2.90;;
55031;SDS011;40928;51.076;7.950;2023-11-21T02:26:54;6.97;;;3.20;;
55031;SDS011;40928;51.076;7.950;2023-11-21T02:29:20;4.85;;;3.10;;
55031;SDS011;40928;51.076;7.950;2023-11-21T02:31:53;7.15;;;3.70;;
55031;SDS011;40928;51.076;7.950;2023-11-21T02:34:21;4.70;;;2.72;;
55031;SDS011;40928;51.076;7.950;2023-11-21T02:36:48;5.70;;;2.70;;
55031;SDS011;40928;51.076;7.950;2023-11-21T02:39:16;6.65;;;3.17;;
55031;SDS011;40928;51.076;7.950;2023-11-21T02:41:43;10.98;;;4.50;;
55031;SDS011;40928;51.076;7.950;2023-11-21T02:44:09;7.72;;;3.88;;
55031;SDS011;40928;51.076;7.950;2023-11-21T02:46:36;9.40;;;4.20;;
55031;SDS011;40928;51.076;7.950;2023-11-21T02:49:05;8.75;;;4.43;;
55031;SDS011;40928;51.076;7.950;2023-11-21T02:51:35;6.60;;;3.30;;
55031;SDS011;40928;51.076;7.950;2023-11-21T02:54:03;9.73;;;4.20;;
55031;SDS011;40928;51.076;7.950;2023-11-21T02:56:33;9.55;;;4.10;;
55031;SDS011;40928;51.076;7.950;2023-11-21T02:58:59;6.05;;;3.40;;
55031;SDS011;40928;51.076;7.950;2023-11-21T03:01:25;5.63;;;3.13;;
55031;SDS011;40928;51.076;7.950;2023-11-21T03:03:52;9.25;;;3.65;;
55031;SDS011;40928;51.076;7.950;2023-11-21T03:06:20;6.28;;;2.88;;
55031;SDS011;40928;51.076;7.950;2023-11-21T03:08:46;7.45;;;3.28;;
55031;SDS011;40928;51.076;7.950;2023-11-21T03:11:12;7.78;;;3.20;;
55031;SDS011;40928;51.076;7.950;2023-11-21T03:13:39;9.40;;;3.70;;
55031;SDS011;40928;51.076;7.950;2023-11-21T03:16:10;9.02;;;3.50;;
55031;SDS011;40928;51.076;7.950;2023-11-21T03:18:37;10.05;;;3.40;;
55031;SDS011;40928;51.076;7.950;2023-11-21T03:21:04;7.18;;;2.97;;
55031;SDS011;40928;51.076;7.950;2023-11-21T03:23:30;7.90;;;3.53;;
55031;SDS011;40928;51.076;7.950;2023-11-21T03:25:56;7.35;;;4.05;;
55031;SDS011;40928;51.076;7.950;2023-11-21T03:28:21;5.90;;;3.00;;
55031;SDS011;40928;51.076;7.950;2023-11-21T03:30:47;8.20;;;3.33;;
55031;SDS011;40928;51.076;7.950;2023-11-21T03:33:13;8.02;;;3.63;;
55031;SDS011;40928;51.076;7.950;2023-11-21T03:35:38;8.27;;;3.70;;
55031;SDS011;40928;51.076;7.950;2023-11-21T03:38:07;5.43;;;3.28;;
55031;SDS011;40928;51.076;7.950;2023-11-21T03:40:32;9.20;;;3.85;;
55031;SDS011;40928;51.076;7.950;2023-11-21T03:42:58;4.88;;;2.92;;
55031;SDS011;40928;51.076;7.950;2023-11-21T03:45:24;4.88;;;2.58;;
55031;SDS011;40928;51.076;7.950;2023-11-21T03:47:49;8.35;;;3.78;;
55031;SDS011;40928;51.076;7.950;2023-11-21T03:50:15;7.80;;;3.42;;
55031;SDS011;40928;51.076;7.950;2023-11-21T03:52:42;6.55;;;3.00;;
55031;SDS011;40928;51.076;7.950;2023-11-21T03:55:08;13.30;;;4.10;;
55031;SDS011;40928;51.076;7.950;2023-11-21T03:57:35;9.40;;;4.05;;
55031;SDS011;40928;51.076;7.950;2023-11-21T04:00:03;10.15;;;4.38;;
55031;SDS011;40928;51.076;7.950;2023-11-21T04:02:37;9.15;;;3.65;;
55031;SDS011;40928;51.076;7.950;2023-11-21T04:05:02;6.97;;;3.20;;
55031;SDS011;40928;51.076;7.950;2023-11-21T04:07:28;5.97;;;3.10;;
55031;SDS011;40928;51.076;7.950;2023-11-21T04:09:54;6.78;;;2.90;;
55031;SDS011;40928;51.076;7.950;2023-11-21T04:12:19;7.25;;;3.28;;
55031;SDS011;40928;51.076;7.950;2023-11-21T04:14:45;13.80;;;6.70;;
55031;SDS011;40928;51.076;7.950;2023-11-21T04:17:10;13.02;;;4.82;;
55031;SDS011;40928;51.076;7.950;2023-11-21T04:19:36;14.20;;;3.92;;
55031;SDS011;40928;51.076;7.950;2023-11-21T04:22:01;8.48;;;4.50;;
55031;SDS011;40928;51.076;7.950;2023-11-21T04:24:27;8.40;;;3.35;;
55031;SDS011;40928;51.076;7.950;2023-11-21T04:26:53;7.70;;;3.90;;
55031;SDS011;40928;51.076;7.950;2023-11-21T04:29:18;6.55;;;2.85;;
55031;SDS011;40928;51.076;7.950;2023-11-21T04:31:44;10.00;;;4.05;;
55031;SDS011;40928;51.076;7.950;2023-11-21T04:34:09;8.35;;;4.45;;
55031;SDS011;40928;51.076;7.950;2023-11-21T04:36:35;5.60;;;3.70;;
55031;SDS011;40928;51.076;7.950;2023-11-21T04:39:00;6.60;;;3.97;;
55031;SDS011;40928;51.076;7.950;2023-11-21T04:41:26;14.40;;;5.03;;
55031;SDS011;40928;51.076;7.950;2023-11-21T04:43:51;10.82;;;5.43;;
55031;SDS011;40928;51.076;7.950;2023-11-21T04:46:17;7.25;;;4.57;;
55031;SDS011;40928;51.076;7.950;2023-11-21T04:48:42;10.05;;;4.88;;
55031;SDS011;40928;51.076;7.950;2023-11-21T04:51:08;8.35;;;4.82;;
55031;SDS011;40928;51.076;7.950;2023-11-21T04:53:34;11.57;;;5.45;;
55031;SDS011;40928;51.076;7.950;2023-11-21T04:56:00;12.10;;;5.78;;
55031;SDS011;40928;51.076;7.950;2023-11-21T04:58:25;9.40;;;5.40;;
55031;SDS011;40928;51.076;7.950;2023-11-21T05:00:51;11.57;;;6.38;;
55031;SDS011;40928;51.076;7.950;2023-11-21T05:03:16;11.20;;;5.45;;
55031;SDS011;40928;51.076;7.950;2023-11-21T05:05:42;16.30;;;6.72;;
55031;SDS011;40928;51.076;7.950;2023-11-21T05:08:07;16.77;;;6.97;;
55031;SDS011;40928;51.076;7.950;2023-11-21T05:10:33;8.43;;;4.70;;
55031;SDS011;40928;51.076;7.950;2023-11-21T05:12:59;13.85;;;7.15;;
55031;SDS011;40928;51.076;7.950;2023-11-21T05:15:24;13.27;;;6.25;;
55031;SDS011;40928;51.076;7.950;2023-11-21T05:17:50;16.42;;;7.70;;
55031;SDS011;40928;51.076;7.950;2023-11-21T05:20:17;15.32;;;7.63;;
55031;SDS011;40928;51.076;7.950;2023-11-21T05:22:46;11.18;;;6.38;;
55031;SDS011;40928;51.076;7.950;2023-11-21T05:25:13;10.10;;;5.65;;
55031;SDS011;40928;51.076;7.950;2023-11-21T05:27:39;13.02;;;7.13;;
55031;SDS011;40928;51.076;7.950;2023-11-21T05:30:05;17.63;;;9.18;;
55031;SDS011;40928;51.076;7.950;2023-11-21T05:32:31;14.88;;;7.97;;
55031;SDS011;40928;51.076;7.950;2023-11-21T05:35:00;13.50;;;6.72;;
55031;SDS011;40928;51.076;7.950;2023-11-21T05:37:26;16.20;;;7.40;;
55031;SDS011;40928;51.076;7.950;2023-11-21T05:39:55;17.33;;;8.27;;
55031;SDS011;40928;51.076;7.950;2023-11-21T05:42:22;17.88;;;8.07;;
55031;SDS011;40928;51.076;7.950;2023-11-21T05:44:48;16.17;;;9.45;;
55031;SDS011;40928;51.076;7.950;2023-11-21T05:47:14;22.77;;;8.88;;
55031;SDS011;40928;51.076;7.950;2023-11-21T05:49:39;20.98;;;9.18;;
55031;SDS011;40928;51.076;7.950;2023-11-21T05:52:05;17.88;;;7.57;;
55031;SDS011;40928;51.076;7.950;2023-11-21T05:54:31;17.35;;;7.70;;
55031;SDS011;40928;51.076;7.950;2023-11-21T05:56:57;18.08;;;7.70;;
55031;SDS011;40928;51.076;7.950;2023-11-21T05:59:22;16.65;;;8.45;;
55031;SDS011;40928;51.076;7.950;2023-11-21T06:01:48;16.88;;;8.55;;
55031;SDS011;40928;51.076;7.950;2023-11-21T06:04:13;12.05;;;7.25;;
55031;SDS011;40928;51.076;7.950;2023-11-21T06:06:39;19.10;;;8.32;;
55031;SDS011;40928;51.076;7.950;2023-11-21T06:09:05;13.75;;;7.35;;
55031;SDS011;40928;51.076;7.950;2023-11-21T06:11:34;16.23;;;8.38;;
55031;SDS011;40928;51.076;7.950;2023-11-21T06:14:00;12.80;;;6.93;;
55031;SDS011;40928;51.076;7.950;2023-11-21T06:16:28;26.33;;;9.07;;
55031;SDS011;40928;51.076;7.950;2023-11-21T06:18:54;24.27;;;9.43;;
55031;SDS011;40928;51.076;7.950;2023-11-21T06:21:19;11.45;;;6.57;;
55031;SDS011;40928;51.076;7.950;2023-11-21T06:23:46;12.68;;;6.63;;
55031;SDS011;40928;51.076;7.950;2023-11-21T06:26:11;15.98;;;7.82;;
55031;SDS011;40928;51.076;7.950;2023-11-21T06:28:38;16.10;;;8.05;;
55031;SDS011;40928;51.076;7.950;2023-11-21T06:31:04;20.70;;;9.20;;
55031;SDS011;40928;51.076;7.950;2023-11-21T06:33:30;20.80;;;9.02;;
55031;SDS011;40928;51.076;7.950;2023-11-21T06:35:57;17.38;;;8.77;;
55031;SDS011;40928;51.076;7.950;2023-11-21T06:38:22;12.25;;;6.82;;
55031;SDS011;40928;51.076;7.950;2023-11-21T06:40:48;17.95;;;9.25;;
55031;SDS011;40928;51.076;7.950;2023-11-21T06:43:13;26.48;;;9.32;;
55031;SDS011;40928;51.076;7.950;2023-11-21T06:45:39;16.70;;;9.13;;
55031;SDS011;40928;51.076;7.950;2023-11-21T06:48:04;20.67;;;10.55;;
55031;SDS011;40928;51.076;7.950;2023-11-21T06:50:30;26.50;;;9.98;;
55031;SDS011;40928;51.076;7.950;2023-11-21T06:52:56;18.38;;;9.38;;
55031;SDS011;40928;51.076;7.950;2023-11-21T06:55:21;19.88;;;8.40;;
55031;SDS011;40928;51.076;7.950;2023-11-21T06:57:47;18.55;;;8.15;;
55031;SDS011;40928;51.076;7.950;2023-11-21T07:00:13;16.77;;;7.10;;
55031;SDS011;40928;51.076;7.950;2023-11-21T07:02:42;17.63;;;8.60;;
55031;SDS011;40928;51.076;7.950;2023-11-21T07:05:08;15.07;;;8.18;;
55031;SDS011;40928;51.076;7.950;2023-11-21T07:07:33;17.73;;;8.70;;
55031;SDS011;40928;51.076;7.950;2023-11-21T07:10:01;16.98;;;8.13;;
55031;SDS011;40928;51.076;7.950;2023-11-21T07:12:28;17.50;;;7.75;;
55031;SDS011;40928;51.076;7.950;2023-11-21T07:14:57;18.67;;;8.63;;
55031;SDS011;40928;51.076;7.950;2023-11-21T07:17:23;14.38;;;7.07;;
55031;SDS011;40928;51.076;7.950;2023-11-21T07:19:49;16.73;;;8.30;;
55031;SDS011;40928;51.076;7.950;2023-11-21T07:22:15;18.73;;;9.52;;
55031;SDS011;40928;51.076;7.950;2023-11-21T07:24:48;17.70;;;7.63;;
55031;SDS011;40928;51.076;7.950;2023-11-21T07:27:16;13.68;;;7.43;;
55031;SDS011;40928;51.076;7.950;2023-11-21T07:29:41;12.70;;;7.15;;
55031;SDS011;40928;51.076;7.950;2023-11-21T07:32:07;14.35;;;7.20;;
55031;SDS011;40928;51.076;7.950;2023-11-21T07:34:34;26.35;;;11.75;;
55031;SDS011;40928;51.076;7.950;2023-11-21T07:37:00;19.30;;;9.25;;
55031;SDS011;40928;51.076;7.950;2023-11-21T07:39:26;32.45;;;12.80;;
55031;SDS011;40928;51.076;7.950;2023-11-21T07:41:51;21.60;;;11.25;;
55031;SDS011;40928;51.076;7.950;2023-11-21T07:44:17;25.58;;;10.68;;
55031;SDS011;40928;51.076;7.950;2023-11-21T07:46:42;21.13;;;10.52;;
55031;SDS011;40928;51.076;7.950;2023-11-21T07:49:08;23.35;;;10.32;;
55031;SDS011;40928;51.076;7.950;2023-11-21T07:51:34;17.60;;;9.38;;
55031;SDS011;40928;51.076;7.950;2023-11-21T07:53:59;20.63;;;9.32;;
55031;SDS011;40928;51.076;7.950;2023-11-21T07:56:25;22.83;;;10.82;;
55031;SDS011;40928;51.076;7.950;2023-11-21T07:58:51;26.13;;;11.68;;
55031;SDS011;40928;51.076;7.950;2023-11-21T08:01:17;28.80;;;11.63;;
55031;SDS011;40928;51.076;7.950;2023-11-21T08:03:42;26.05;;;11.25;;
55031;SDS011;40928;51.076;7.950;2023-11-21T08:06:09;22.73;;;10.23;;
55031;SDS011;40928;51.076;7.950;2023-11-21T08:08:35;30.13;;;12.20;;
55031;SDS011;40928;51.076;7.950;2023-11-21T08:11:00;19.95;;;8.55;;
55031;SDS011;40928;51.076;7.950;2023-11-21T08:13:28;17.40;;;8.02;;
55031;SDS011;40928;51.076;7.950;2023-11-21T08:15:58;26.35;;;11.70;;
55031;SDS011;40928;51.076;7.950;2023-11-21T08:18:27;27.30;;;10.95;;
55031;SDS011;40928;51.076;7.950;2023-11-21T08:20:54;29.15;;;11.93;;
55031;SDS011;40928;51.076;7.950;2023-11-21T08:23:20;14.20;;;7.70;;
55031;SDS011;40928;51.076;7.950;2023-11-21T08:25:46;17.58;;;7.47;;
55031;SDS011;40928;51.076;7.950;2023-11-21T08:28:11;22.08;;;9.50;;
55031;SDS011;40928;51.076;7.950;2023-11-21T08:30:39;23.38;;;10.05;;
55031;SDS011;40928;51.076;7.950;2023-11-21T08:33:06;22.90;;;10.23;;
55031;SDS011;40928;51.076;7.950;2023-11-21T08:35:33;24.67;;;9.40;;
55031;SDS011;40928;51.076;7.950;2023-11-21T08:37:59;13.35;;;7.75;;
55031;SDS011;40928;51.076;7.950;2023-11-21T08:40:25;14.80;;;7.35;;
55031;SDS011;40928;51.076;7.950;2023-11-21T08:42:50;14.85;;;7.35;;
55031;SDS011;40928;51.076;7.950;2023-11-21T08:45:18;17.63;;;8.35;;
55031;SDS011;40928;51.076;7.950;2023-11-21T08:47:45;19.23;;;8.48;;
55031;SDS011;40928;51.076;7.950;2023-11-21T08:50:11;14.57;;;7.93;;
55031;SDS011;40928;51.076;7.950;2023-11-21T08:52:37;19.98;;;8.55;;
55031;SDS011;40928;51.076;7.950;2023-11-21T08:55:07;11.48;;;6.88;;
55031;SDS011;40928;51.076;7.950;2023-11-21T08:57:37;17.63;;;8.73;;
55031;SDS011;40928;51.076;7.950;2023-11-21T09:00:03;18.92;;;8.95;;
55031;SDS011;40928;51.076;7.950;2023-11-21T09:02:33;17.70;;;8.35;;
55031;SDS011;40928;51.076;7.950;2023-11-21T09:05:02;17.50;;;8.32;;
55031;SDS011;40928;51.076;7.950;2023-11-21T09:07:29;18.10;;;8.35;;
55031;SDS011;40928;51.076;7.950;2023-11-21T09:09:55;12.80;;;6.97;;
55031;SDS011;40928;51.076;7.950;2023-11-21T09:12:20;13.48;;;6.93;;
55031;SDS011;40928;51.076;7.950;2023-11-21T09:14:46;13.93;;;7.50;;
55031;SDS011;40928;51.076;7.950;2023-11-21T09:17:12;15.98;;;7.15;;
55031;SDS011;40928;51.076;7.950;2023-11-21T09:19:38;13.93;;;6.35;;
55031;SDS011;40928;51.076;7.950;2023-11-21T09:22:04;12.75;;;6.57;;
55031;SDS011;40928;51.076;7.950;2023-11-21T09:24:33;17.52;;;7.15;;
55031;SDS011;40928;51.076;7.950;2023-11-21T09:26:59;10.15;;;6.20;;
55031;SDS011;40928;51.076;7.950;2023-11-21T09:29:25;10.75;;;5.72;;
55031;SDS011;40928;51.076;7.950;2023-11-21T09:31:51;15.10;;;7.38;;
55031;SDS011;40928;51.076;7.950;2023-11-21T09:34:17;13.32;;;7.25;;
55031;SDS011;40928;51.076;7.950;2023-11-21T09:36:46;17.85;;;7.70;;
55031;SDS011;40928;51.076;7.950;2023-11-21T09:39:13;15.77;;;7.03;;
55031;SDS011;40928;51.076;7.950;2023-11-21T09:41:44;18.27;;;7.43;;
55031;SDS011;40928;51.076;7.950;2023-11-21T09:44:26;14.60;;;7.28;;
55031;SDS011;40928;51.076;7.950;2023-11-21T09:49:27;11.80;;;6.22;;
55031;SDS011;40928;51.076;7.950;2023-11-21T09:51:57;14.80;;;6.85;;
55031;SDS011;40928;51.076;7.950;2023-11-21T09:54:28;12.10;;;6.72;;
55031;SDS011;40928;51.076;7.950;2023-11-21T09:56:57;11.93;;;6.13;;
55031;SDS011;40928;51.076;7.950;2023-11-21T09:59:24;17.70;;;6.80;;
55031;SDS011;40928;51.076;7.950;2023-11-21T10:01:55;16.65;;;7.57;;
55031;SDS011;40928;51.076;7.950;2023-11-21T10:04:23;14.32;;;6.40;;
55031;SDS011;40928;51.076;7.950;2023-11-21T10:06:49;15.02;;;7.07;;
55031;SDS011;40928;51.076;7.950;2023-11-21T10:09:16;14.75;;;6.75;;
55031;SDS011;40928;51.076;7.950;2023-11-21T10:11:42;12.90;;;5.60;;
55031;SDS011;40928;51.076;7.950;2023-11-21T10:14:11;11.25;;;6.40;;
55031;SDS011;40928;51.076;7.950;2023-11-21T10:16:38;10.82;;;4.78;;
55031;SDS011;40928;51.076;7.950;2023-11-21T10:19:06;11.45;;;5.53;;
55031;SDS011;40928;51.076;7.950;2023-11-21T10:21:35;15.23;;;5.88;;
55031;SDS011;40928;51.076;7.950;2023-11-21T10:24:02;12.57;;;5.80;;
55031;SDS011;40928;51.076;7.950;2023-11-21T10:26:28;12.48;;;5.50;;
55031;SDS011;40928;51.076;7.950;2023-11-21T10:29:00;13.38;;;5.93;;
55031;SDS011;40928;51.076;7.950;2023-11-21T10:31:30;12.60;;;5.82;;
55031;SDS011;40928;51.076;7.950;2023-11-21T10:34:14;13.13;;;5.75;;
55031;SDS011;40928;51.076;7.950;2023-11-21T10:36:44;15.30;;;6.95;;
55031;SDS011;40928;51.076;7.950;2023-11-21T10:39:14;11.27;;;5.78;;
55031;SDS011;40928;51.076;7.950;2023-11-21T10:41:45;11.60;;;5.40;;
55031;SDS011;40928;51.076;7.950;2023-11-21T10:44:13;11.30;;;5.30;;
55031;SDS011;40928;51.076;7.950;2023-11-21T10:46:45;10.23;;;5.00;;
55031;SDS011;40928;51.076;7.950;2023-11-21T10:49:16;9.75;;;5.63;;
55031;SDS011;40928;51.076;7.950;2023-11-21T10:51:45;16.15;;;7.70;;
55031;SDS011;40928;51.076;7.950;2023-11-21T10:54:17;17.40;;;6.95;;
55031;SDS011;40928;51.076;7.950;2023-11-21T10:56:43;12.75;;;5.90;;
55031;SDS011;40928;51.076;7.950;2023-11-21T10:59:10;13.13;;;6.03;;
55031;SDS011;40928;51.076;7.950;2023-11-21T11:01:44;22.02;;;6.30;;
55031;SDS011;40928;51.076;7.950;2023-11-21T11:04:13;11.85;;;5.85;;
55031;SDS011;40928;51.076;7.950;2023-11-21T11:06:45;15.93;;;6.85;;
55031;SDS011;40928;51.076;7.950;2023-11-21T11:09:18;22.63;;;6.30;;
55031;SDS011;40928;51.076;7.950;2023-11-21T11:11:43;14.63;;;5.90;;
55031;SDS011;40928;51.076;7.950;2023-11-21T11:14:12;15.23;;;6.68;;
55031;SDS011;40928;51.076;7.950;2023-11-21T11:16:39;16.55;;;5.68;;
55031;SDS011;40928;51.076;7.950;2023-11-21T11:19:08;18.13;;;6.93;;
55031;SDS011;40928;51.076;7.950;2023-11-21T11:26:58;16.45;;;5.53;;
55031;SDS011;40928;51.076;7.950;2023-11-21T11:29:40;12.52;;;5.88;;
55031;SDS011;40928;51.076;7.950;2023-11-21T11:32:27;12.63;;;5.05;;
55031;SDS011;40928;51.076;7.950;2023-11-21T11:35:19;10.85;;;5.18;;
55031;SDS011;40928;51.076;7.950;2023-11-21T11:38:07;16.27;;;5.55;;
55031;SDS011;40928;51.076;7.950;2023-11-21T11:40:46;11.30;;;5.95;;
55031;SDS011;40928;51.076;7.950;2023-11-21T11:43:12;15.88;;;5.45;;
55031;SDS011;40928;51.076;7.950;2023-11-21T11:45:38;10.52;;;4.22;;
55031;SDS011;40928;51.076;7.950;2023-11-21T11:48:07;14.15;;;4.93;;
55031;SDS011;40928;51.076;7.950;2023-11-21T11:50:33;13.25;;;4.75;;
55031;SDS011;40928;51.076;7.950;2023-11-21T11:53:15;15.48;;;4.68;;
55031;SDS011;40928;51.076;7.950;2023-11-21T11:55:40;13.95;;;4.90;;
55031;SDS011;40928;51.076;7.950;2023-11-21T11:58:06;11.32;;;4.93;;
55031;SDS011;40928;51.076;7.950;2023-11-21T12:03:00;11.15;;;4.53;;
55031;SDS011;40928;51.076;7.950;2023-11-21T12:05:28;10.27;;;3.38;;
55031;SDS011;40928;51.076;7.950;2023-11-21T12:07:58;21.15;;;5.10;;
55031;SDS011;40928;51.076;7.950;2023-11-21T12:10:35;12.70;;;5.30;;
55031;SDS011;40928;51.076;7.950;2023-11-21T12:13:08;11.57;;;4.93;;
55031;SDS011;40928;51.076;7.950;2023-11-21T12:15:38;13.70;;;5.57;;
55031;SDS011;40928;51.076;7.950;2023-11-21T12:18:06;11.52;;;4.47;;
55031;SDS011;40928;51.076;7.950;2023-11-21T12:20:33;15.32;;;5.68;;
55031;SDS011;40928;51.076;7.950;2023-11-21T12:23:03;11.77;;;5.05;;
55031;SDS011;40928;51.076;7.950;2023-11-21T12:25:31;13.15;;;4.63;;
55031;SDS011;40928;51.076;7.950;2023-11-21T12:27:58;10.48;;;4.63;;
55031;SDS011;40928;51.076;7.950;2023-11-21T12:30:25;14.85;;;5.18;;
55031;SDS011;40928;51.076;7.950;2023-11-21T12:33:00;9.45;;;4.75;;
55031;SDS011;40928;51.076;7.950;2023-11-21T12:35:27;14.45;;;4.70;;
55031;SDS011;40928;51.076;7.950;2023-11-21T12:37:54;15.93;;;4.47;;
55031;SDS011;40928;51.076;7.950;2023-11-21T12:40:24;10.00;;;4.45;;
55031;SDS011;40928;51.076;7.950;2023-11-21T12:42:54;7.28;;;3.65;;
55031;SDS011;40928;51.076;7.950;2023-11-21T12:45:22;11.52;;;4.60;;
55031;SDS011;40928;51.076;7.950;2023-11-21T12:47:51;9.70;;;4.07;;
55031;SDS011;40928;51.076;7.950;2023-11-21T12:50:22;10.85;;;4.07;;
55031;SDS011;40928;51.076;7.950;2023-11-21T12:52:54;9.07;;;4.22;;
55031;SDS011;40928;51.076;7.950;2023-11-21T12:55:24;10.05;;;4.25;;
55031;SDS011;40928;51.076;7.950;2023-11-21T12:57:54;10.40;;;3.90;;
55031;SDS011;40928;51.076;7.950;2023-11-21T13:00:27;9.40;;;4.03;;
55031;SDS011;40928;51.076;7.950;2023-11-21T13:02:55;12.97;;;4.40;;
55031;SDS011;40928;51.076;7.950;2023-11-21T13:05:27;6.03;;;3.30;;
55031;SDS011;40928;51.076;7.950;2023-11-21T13:07:59;8.55;;;3.28;;
55031;SDS011;40928;51.076;7.950;2023-11-21T13:10:28;8.93;;;3.42;;
55031;SDS011;40928;51.076;7.950;2023-11-21T13:12:58;6.28;;;3.42;;
55031;SDS011;40928;51.076;7.950;2023-11-21T13:15:25;6.82;;;3.20;;
55031;SDS011;40928;51.076;7.950;2023-11-21T13:17:52;7.28;;;3.50;;
55031;SDS011;40928;51.076;7.950;2023-11-21T13:20:19;8.70;;;2.95;;
55031;SDS011;40928;51.076;7.950;2023-11-21T13:22:49;7.05;;;3.42;;
55031;SDS011;40928;51.076;7.950;2023-11-21T13:25:17;7.93;;;2.80;;
55031;SDS011;40928;51.076;7.950;2023-11-21T13:27:45;7.32;;;3.72;;
55031;SDS011;40928;51.076;7.950;2023-11-21T13:30:13;6.82;;;3.10;;
55031;SDS011;40928;51.076;7.950;2023-11-21T13:32:43;8.70;;;3.13;;
55031;SDS011;40928;51.076;7.950;2023-11-21T13:35:12;5.50;;;2.17;;
55031;SDS011;40928;51.076;7.950;2023-11-21T13:37:51;3.75;;;2.60;;
55031;SDS011;40928;51.076;7.950;2023-11-21T13:40:21;4.25;;;2.22;;
55031;SDS011;40928;51.076;7.950;2023-11-21T13:42:53;6.95;;;2.50;;
55031;SDS011;40928;51.076;7.950;2023-11-21T13:45:22;4.32;;;2.50;;
55031;SDS011;40928;51.076;7.950;2023-11-21T13:47:49;4.53;;;2.35;;
55031;SDS011;40928;51.076;7.950;2023-11-21T13:50:27;6.00;;;2.22;;
55031;SDS011;40928;51.076;7.950;2023-11-21T13:52:59;5.13;;;3.10;;
55031;SDS011;40928;51.076;7.950;2023-11-21T13:55:36;3.38;;;2.22;;
55031;SDS011;40928;51.076;7.950;2023-11-21T13:58:02;4.13;;;2.25;;
55031;SDS011;40928;51.076;7.950;2023-11-21T14:00:29;5.32;;;2.78;;
55031;SDS011;40928;51.076;7.950;2023-11-21T14:03:21;7.22;;;3.00;;
55031;SDS011;40928;51.076;7.950;2023-11-21T14:05:49;6.90;;;3.28;;
55031;SDS011;40928;51.076;7.950;2023-11-21T14:08:18;6.85;;;3.35;;
55031;SDS011;40928;51.076;7.950;2023-11-21T14:10:49;6.53;;;3.42;;
55031;SDS011;40928;51.076;7.950;2023-11-21T14:13:25;7.35;;;3.55;;
55031;SDS011;40928;51.076;7.950;2023-11-21T14:15:52;7.07;;;3.35;;
55031;SDS011;40928;51.076;7.950;2023-11-21T14:18:25;6.40;;;3.33;;
55031;SDS011;40928;51.076;7.950;2023-11-21T14:20:56;9.52;;;4.07;;
55031;SDS011;40928;51.076;7.950;2023-11-21T14:23:22;7.13;;;3.88;;
55031;SDS011;40928;51.076;7.950;2023-11-21T14:25:48;8.02;;;4.38;;
55031;SDS011;40928;51.076;7.950;2023-11-21T14:28:16;7.72;;;4.00;;
55031;SDS011;40928;51.076;7.950;2023-11-21T14:30:41;9.27;;;4.55;;
55031;SDS011;40928;51.076;7.950;2023-11-21T14:33:07;12.48;;;5.55;;
55031;SDS011;40928;51.076;7.950;2023-11-21T14:35:35;11.52;;;5.80;;
55031;SDS011;40928;51.076;7.950;2023-11-21T14:38:01;10.25;;;4.75;;
55031;SDS011;40928;51.076;7.950;2023-11-21T14:40:30;10.05;;;5.40;;
55031;SDS011;40928;51.076;7.950;2023-11-21T14:43:00;11.07;;;5.22;;
55031;SDS011;40928;51.076;7.950;2023-11-21T14:45:26;11.93;;;6.20;;
55031;SDS011;40928;51.076;7.950;2023-11-21T14:47:54;13.95;;;6.15;;
55031;SDS011;40928;51.076;7.950;2023-11-21T14:50:33;14.63;;;6.63;;
55031;SDS011;40928;51.076;7.950;2023-11-21T14:53:12;16.55;;;5.95;;